Time;durP1;ratioP1;P1;durP2;ratioP2;P2;SDS_P1;SDS_P2;PMS_P1;PMS_P2;Temp;Humidity;BMP_temperature;BMP_pressure;BME280_temperature;BME280_humidity;BME280_pressure;Samples;Min_cycle;Max_cycle;Signal;HPM_P1;HPM_P2
2023/01/25 00:02:21;;;;;;;15.97;9.43;;;1.20;99.90;;;;;;5063295;28;20199;-63
2023/01/25 00:04:48;;;;;;;17.20;9.90;;;1.20;99.90;;;;;;5052365;28;20217;-64
2023/01/25 00:07:15;;;;;;;20.23;9.77;;;1.20;99.90;;;;;;5056090;28;20203;-63
2023/01/25 00:09:42;;;;;;;15.77;9.53;;;1.20;99.90;;;;;;5075472;28;20200;-64
2023/01/25 00:12:10;;;;;;;17.33;10.43;;;1.20;99.90;;;;;;5063180;28;20205;-63
2023/01/25 00:14:36;;;;;;;18.47;10.47;;;1.00;99.90;;;;;;5064557;28;20208;-64
2023/01/25 00:17:03;;;;;;;16.00;9.90;;;1.00;99.90;;;;;;5056565;28;20220;-64
2023/01/25 00:19:30;;;;;;;19.10;11.23;;;1.00;99.90;;;;;;5060683;28;20213;-64
2023/01/25 00:21:57;;;;;;;17.13;10.03;;;1.00;99.90;;;;;;5043041;28;20220;-64
2023/01/25 00:24:24;;;;;;;20.67;11.23;;;1.10;99.90;;;;;;5072090;28;20199;-64
2023/01/25 00:26:51;;;;;;;15.67;10.47;;;1.10;99.90;;;;;;5074048;27;20227;-63
2023/01/25 00:29:19;;;;;;;14.17;9.63;;;1.10;99.90;;;;;;5075032;28;20212;-63
2023/01/25 00:31:55;;;;;;;12.70;9.30;;;1.10;99.90;;;;;;5070303;27;20786;-63
2023/01/25 00:34:45;;;;;;;16.13;10.20;;;1.10;99.90;;;;;;5084613;27;20202;-63
2023/01/25 00:37:23;;;;;;;15.63;10.10;;;1.10;99.90;;;;;;5045836;27;27516;-67
2023/01/25 00:39:50;;;;;;;16.67;10.73;;;1.10;99.90;;;;;;5082354;27;20202;-63
2023/01/25 00:42:19;;;;;;;14.60;9.63;;;1.00;99.90;;;;;;5078362;27;20213;-63
2023/01/25 00:44:48;;;;;;;14.67;9.80;;;1.00;99.90;;;;;;5065081;27;20679;-64
2023/01/25 00:47:16;;;;;;;22.03;9.43;;;1.00;99.90;;;;;;5076076;27;20207;-63
2023/01/25 00:49:44;;;;;;;13.83;9.53;;;1.00;99.90;;;;;;5064853;27;20209;-63
2023/01/25 00:52:11;;;;;;;14.50;9.13;;;1.00;99.90;;;;;;5035171;27;20933;-65
2023/01/25 00:54:38;;;;;;;13.63;9.37;;;1.00;99.90;;;;;;5075835;27;20204;-66
2023/01/25 00:57:05;;;;;;;14.47;8.87;;;0.90;99.90;;;;;;5070409;28;20230;-66
2023/01/25 00:59:33;;;;;;;13.13;8.47;;;0.90;99.90;;;;;;5072386;28;20204;-66
2023/01/25 01:02:01;;;;;;;15.87;9.57;;;1.00;99.90;;;;;;5076416;27;20225;-65
2023/01/25 01:04:28;;;;;;;22.43;11.77;;;0.90;99.90;;;;;;5056901;28;20236;-65
2023/01/25 01:06:55;;;;;;;16.40;10.57;;;1.00;99.90;;;;;;5017175;28;20231;-65
2023/01/25 01:09:23;;;;;;;18.37;12.23;;;1.00;99.90;;;;;;5068804;28;20199;-65
2023/01/25 01:11:50;;;;;;;17.13;11.13;;;1.00;99.90;;;;;;5064827;28;20202;-65
2023/01/25 01:14:16;;;;;;;20.30;12.50;;;0.90;99.90;;;;;;5061692;28;20681;-65
2023/01/25 01:16:43;;;;;;;16.50;10.80;;;0.90;99.90;;;;;;5049107;28;20221;-66
2023/01/25 01:19:11;;;;;;;15.33;10.70;;;0.90;99.90;;;;;;5044536;28;20215;-65
2023/01/25 01:21:38;;;;;;;15.33;10.23;;;0.90;99.90;;;;;;5043003;28;20536;-65
2023/01/25 01:24:06;;;;;;;20.03;11.67;;;1.80;99.90;;;;;;5043297;28;20577;-65
2023/01/25 01:26:33;;;;;;;18.87;11.50;;;0.90;99.90;;;;;;5065381;28;20233;-65
2023/01/25 01:29:00;;;;;;;16.90;10.40;;;0.90;99.90;;;;;;5065611;28;20210;-65
2023/01/25 01:31:27;;;;;;;18.13;11.07;;;0.90;99.90;;;;;;5050282;28;20211;-65
2023/01/25 01:33:55;;;;;;;21.90;13.63;;;1.00;99.90;;;;;;5047111;28;20211;-65
2023/01/25 01:36:26;;;;;;;17.40;11.93;;;1.00;99.90;;;;;;5041573;28;20588;-65
2023/01/25 01:38:53;;;;;;;16.63;11.40;;;0.90;99.90;;;;;;5033410;28;20210;-65
2023/01/25 01:41:20;;;;;;;15.63;10.80;;;1.00;99.90;;;;;;5067750;28;20201;-65
2023/01/25 01:43:47;;;;;;;21.67;11.37;;;0.90;99.90;;;;;;5063595;28;20228;-65
2023/01/25 01:46:19;;;;;;;15.77;11.00;;;0.90;99.90;;;;;;5043230;28;20740;-67
2023/01/25 01:48:50;;;;;;;14.40;9.97;;;1.00;99.90;;;;;;5054484;28;20206;-65
2023/01/25 01:51:22;;;;;;;16.47;11.03;;;1.00;99.90;;;;;;5040947;28;20679;-65
2023/01/25 01:53:56;;;;;;;18.87;10.87;;;1.00;99.90;;;;;;5030181;28;20229;-65
2023/01/25 01:56:29;;;;;;;18.77;12.63;;;0.90;99.90;;;;;;5065936;28;20202;-65
2023/01/25 01:58:58;;;;;;;15.33;10.37;;;0.90;99.90;;;;;;5064894;28;20207;-65
2023/01/25 02:01:25;;;;;;;15.00;10.73;;;0.90;99.90;;;;;;5045391;28;20201;-65
2023/01/25 02:03:55;;;;;;;14.47;9.47;;;0.80;99.90;;;;;;5052549;28;20232;-65
2023/01/25 02:06:29;;;;;;;15.27;10.10;;;0.80;99.90;;;;;;5062001;27;20226;-65
2023/01/25 02:09:00;;;;;;;15.57;10.47;;;0.90;99.90;;;;;;5040605;28;20215;-66
2023/01/25 02:11:27;;;;;;;15.30;10.40;;;0.90;99.90;;;;;;5081074;27;20207;-65
2023/01/25 02:13:56;;;;;;;16.47;11.13;;;0.90;99.90;;;;;;5079851;27;20243;-65
2023/01/25 02:16:25;;;;;;;15.60;10.80;;;0.90;99.90;;;;;;5068689;28;20216;-65
2023/01/25 02:18:54;;;;;;;17.30;11.73;;;0.90;99.90;;;;;;5068945;27;20207;-65
2023/01/25 02:21:23;;;;;;;20.67;12.27;;;0.90;99.90;;;;;;5069540;27;20204;-65
2023/01/25 02:23:53;;;;;;;16.30;11.47;;;0.90;99.90;;;;;;5064694;27;20979;-65
2023/01/25 02:26:23;;;;;;;19.10;11.43;;;0.80;99.90;;;;;;5047198;28;20229;-65
2023/01/25 02:28:53;;;;;;;16.23;11.37;;;0.90;99.90;;;;;;5075994;28;20217;-65
2023/01/25 02:31:20;;;;;;;17.20;11.73;;;0.80;99.90;;;;;;5082278;27;20205;-65
2023/01/25 02:33:47;;;;;;;18.03;12.03;;;0.90;99.90;;;;;;5051757;28;20335;-65
2023/01/25 02:36:20;;;;;;;17.53;11.90;;;0.90;99.90;;;;;;5074331;27;20203;-65
2023/01/25 02:38:51;;;;;;;17.10;12.23;;;0.90;99.90;;;;;;5034436;28;20209;-65
2023/01/25 02:41:25;;;;;;;15.57;11.30;;;0.90;99.90;;;;;;5040785;28;20208;-65
2023/01/25 02:43:53;;;;;;;17.40;12.07;;;0.80;99.90;;;;;;5062190;28;20996;-65
2023/01/25 02:46:24;;;;;;;18.73;12.83;;;0.80;99.90;;;;;;5061862;28;20274;-65
2023/01/25 02:48:52;;;;;;;17.30;11.50;;;0.80;99.90;;;;;;5033948;28;20207;-65
2023/01/25 02:51:19;;;;;;;16.53;11.60;;;0.80;99.90;;;;;;5064612;28;20260;-65
2023/01/25 02:53:46;;;;;;;17.47;12.10;;;0.80;99.90;;;;;;5036366;28;22613;-65
2023/01/25 02:56:13;;;;;;;22.43;13.57;;;0.80;99.90;;;;;;5051854;27;20225;-65
2023/01/25 02:58:41;;;;;;;19.30;12.40;;;0.70;99.90;;;;;;5065572;28;20211;-65
2023/01/25 03:01:08;;;;;;;20.40;13.07;;;0.80;99.90;;;;;;5068974;28;20198;-65
2023/01/25 03:03:35;;;;;;;19.50;13.20;;;0.80;99.90;;;;;;5057003;27;20243;-66
2023/01/25 03:06:02;;;;;;;20.37;13.17;;;0.80;99.90;;;;;;5058785;28;20227;-65
2023/01/25 03:08:29;;;;;;;21.70;12.70;;;0.80;99.90;;;;;;5032939;28;20695;-65
2023/01/25 03:10:57;;;;;;;21.40;14.20;;;0.80;99.90;;;;;;4996739;28;21929;-66
2023/01/25 03:13:24;;;;;;;20.50;14.10;;;0.90;99.90;;;;;;5066967;28;20281;-65
2023/01/25 03:15:58;;;;;;;21.50;14.30;;;0.90;99.90;;;;;;5073072;28;20216;-65
2023/01/25 03:18:25;;;;;;;22.10;14.40;;;0.90;99.90;;;;;;5056151;28;20245;-65
2023/01/25 03:20:51;;;;;;;21.90;14.17;;;0.80;99.90;;;;;;5063996;28;20210;-65
2023/01/25 03:23:18;;;;;;;23.73;15.27;;;0.80;99.90;;;;;;5069757;28;20210;-65
2023/01/25 03:25:45;;;;;;;19.53;13.93;;;0.90;99.90;;;;;;5030273;28;20212;-65
2023/01/25 03:28:12;;;;;;;23.33;14.07;;;0.90;99.90;;;;;;5074717;28;20997;-65
2023/01/25 03:30:39;;;;;;;21.37;14.07;;;0.90;99.90;;;;;;5079115;28;20228;-65
2023/01/25 03:33:07;;;;;;;18.97;13.87;;;0.80;99.90;;;;;;5054087;28;20220;-66
2023/01/25 03:35:34;;;;;;;23.30;14.17;;;0.70;99.90;;;;;;5059113;28;20200;-65
2023/01/25 03:38:00;;;;;;;24.83;12.90;;;0.80;99.90;;;;;;5062004;28;20285;-65
2023/01/25 03:40:27;;;;;;;22.83;13.27;;;0.70;99.90;;;;;;5068917;28;20221;-65
2023/01/25 03:42:54;;;;;;;21.90;13.93;;;0.80;99.90;;;;;;5040002;28;20209;-65
2023/01/25 03:45:21;;;;;;;22.13;13.53;;;0.80;99.90;;;;;;5075968;28;20200;-65
2023/01/25 03:47:47;;;;;;;22.07;13.30;;;0.80;99.90;;;;;;5066365;28;20229;-65
2023/01/25 03:50:16;;;;;;;22.57;14.77;;;0.80;99.90;;;;;;5059532;28;20207;-65
2023/01/25 03:53:08;;;;;;;23.47;13.93;;;0.80;99.90;;;;;;5066101;28;20208;-65
2023/01/25 03:55:35;;;;;;;21.83;13.60;;;0.80;99.90;;;;;;5068182;28;20206;-65
2023/01/25 03:58:02;;;;;;;24.93;14.90;;;0.70;99.90;;;;;;5040954;28;20221;-65
2023/01/25 04:00:28;;;;;;;24.27;14.63;;;0.60;99.90;;;;;;5075622;28;20206;-65
2023/01/25 04:02:55;;;;;;;21.67;14.03;;;0.70;99.90;;;;;;5054703;27;20754;-65
2023/01/25 04:05:23;;;;;;;22.63;14.07;;;0.60;99.90;;;;;;5063734;28;20199;-65
2023/01/25 04:07:50;;;;;;;23.73;14.70;;;0.70;99.90;;;;;;5059495;28;20230;-65
2023/01/25 04:10:17;;;;;;;22.00;13.80;;;0.70;99.90;;;;;;5053813;27;20994;-65
2023/01/25 04:12:44;;;;;;;25.73;14.50;;;0.70;99.90;;;;;;5041748;27;20256;-65
2023/01/25 04:15:11;;;;;;;28.90;15.00;;;0.80;99.90;;;;;;5073583;27;20201;-65
2023/01/25 04:17:38;;;;;;;23.67;15.03;;;0.80;99.90;;;;;;5049674;27;20591;-65
2023/01/25 04:20:06;;;;;;;22.10;14.07;;;0.80;99.90;;;;;;5085544;27;20780;-65
2023/01/25 04:22:34;;;;;;;21.43;14.17;;;0.80;99.90;;;;;;5062177;28;20314;-65
2023/01/25 04:25:00;;;;;;;21.83;15.03;;;0.80;99.90;;;;;;5058410;27;20209;-65
2023/01/25 04:27:27;;;;;;;24.07;13.80;;;0.70;99.90;;;;;;5041520;27;20237;-64
2023/01/25 04:29:54;;;;;;;20.43;14.33;;;0.70;99.90;;;;;;5056891;28;20209;-66
2023/01/25 04:32:21;;;;;;;24.03;15.13;;;0.70;99.90;;;;;;5039884;28;20792;-65
2023/01/25 04:34:48;;;;;;;20.70;13.47;;;0.80;99.90;;;;;;5066933;27;20208;-65
2023/01/25 04:37:15;;;;;;;22.00;13.70;;;;;;;;;;5070282;28;20201;-66
2023/01/25 04:39:43;;;;;;;23.33;14.43;;;0.70;99.90;;;;;;5074649;27;20212;-65
2023/01/25 04:42:10;;;;;;;23.20;14.67;;;0.70;99.90;;;;;;5027735;27;20679;-64
2023/01/25 04:44:37;;;;;;;23.17;14.73;;;0.70;99.90;;;;;;5084611;27;20199;-64
2023/01/25 04:47:03;;;;;;;22.33;14.50;;;0.60;99.90;;;;;;5060869;27;21017;-64
2023/01/25 04:49:30;;;;;;;22.17;14.43;;;0.60;99.90;;;;;;5062067;27;20934;-64
2023/01/25 04:51:57;;;;;;;21.83;13.83;;;0.70;99.90;;;;;;5090194;27;20294;-63
2023/01/25 04:54:24;;;;;;;25.03;15.07;;;0.70;99.90;;;;;;5061121;28;20234;-64
2023/01/25 04:56:52;;;;;;;21.77;14.17;;;0.70;99.90;;;;;;5061898;28;20213;-63
2023/01/25 04:59:19;;;;;;;21.43;14.17;;;0.70;99.90;;;;;;5044745;28;20229;-63
2023/01/25 05:01:46;;;;;;;28.13;15.20;;;0.70;99.90;;;;;;5059514;28;20733;-63
2023/01/25 05:04:12;;;;;;;27.57;16.10;;;0.70;99.90;;;;;;5056651;27;20236;-64
2023/01/25 05:06:39;;;;;;;25.00;14.43;;;0.80;99.90;;;;;;5075311;27;20243;-63
2023/01/25 05:09:06;;;;;;;32.33;18.80;;;0.80;99.90;;;;;;5052099;28;20223;-64
2023/01/25 05:11:33;;;;;;;30.50;17.80;;;0.80;99.90;;;;;;5067274;28;20310;-64
2023/01/25 05:14:01;;;;;;;29.53;17.23;;;0.70;99.90;;;;;;5013515;27;21147;-63
2023/01/25 05:16:28;;;;;;;27.17;15.03;;;0.70;99.90;;;;;;5075947;27;20199;-63
2023/01/25 05:18:54;;;;;;;28.13;16.67;;;0.80;99.90;;;;;;5057237;28;20244;-63
2023/01/25 05:24:15;;;;;;;28.43;16.70;;;0.70;99.90;;;;;;5003624;28;20214;-63
2023/01/25 05:27:00;;;;;;;29.43;17.17;;;0.70;99.90;;;;;;5081113;27;20222;-63
2023/01/25 05:29:29;;;;;;;30.83;17.03;;;0.70;99.90;;;;;;5035239;28;20225;-64
2023/01/25 05:31:55;;;;;;;26.80;15.67;;;0.70;99.90;;;;;;5067148;28;20218;-63
2023/01/25 05:34:22;;;;;;;27.27;15.53;;;0.60;99.90;;;;;;5042831;28;20232;-64
2023/01/25 05:36:49;;;;;;;25.73;15.70;;;0.60;99.90;;;;;;5052788;28;22008;-63
2023/01/25 05:39:16;;;;;;;25.13;16.40;;;0.70;99.90;;;;;;5065872;28;20198;-63
2023/01/25 05:41:43;;;;;;;29.10;16.60;;;0.60;99.90;;;;;;5070778;27;20197;-64
2023/01/25 05:44:10;;;;;;;31.10;15.67;;;0.60;99.90;;;;;;5044512;27;21643;-64
2023/01/25 05:46:38;;;;;;;25.43;15.03;;;0.60;99.90;;;;;;5065237;28;21087;-64
2023/01/25 05:49:05;;;;;;;30.80;16.20;;;0.70;99.90;;;;;;5059842;28;20229;-64
2023/01/25 05:51:32;;;;;;;27.00;16.00;;;0.60;99.90;;;;;;5060799;27;20206;-64
2023/01/25 05:53:59;;;;;;;25.60;14.83;;;0.50;99.90;;;;;;5056614;27;20671;-64
2023/01/25 05:56:25;;;;;;;28.80;16.53;;;0.60;99.90;;;;;;5055707;27;20358;-63
2023/01/25 05:58:56;;;;;;;26.30;14.97;;;0.60;99.90;;;;;;5042812;27;20212;-64
2023/01/25 06:01:23;;;;;;;27.43;14.90;;;0.60;99.90;;;;;;5053629;28;20241;-64
2023/01/25 06:03:52;;;;;;;24.43;14.47;;;0.60;99.90;;;;;;5068190;28;20254;-63
2023/01/25 06:06:20;;;;;;;27.80;15.10;;;0.50;99.90;;;;;;5052294;28;20216;-64
2023/01/25 06:08:47;;;;;;;28.63;15.87;;;0.50;99.90;;;;;;5071757;27;20235;-63
2023/01/25 06:11:16;;;;;;;25.97;14.70;;;0.50;99.90;;;;;;5058189;27;20235;-64
2023/01/25 06:13:43;;;;;;;24.77;14.67;;;0.50;99.90;;;;;;5038183;28;20255;-64
2023/01/25 06:16:10;;;;;;;23.73;13.77;;;0.50;99.90;;;;;;5063940;27;20221;-64
2023/01/25 06:18:37;;;;;;;26.97;14.40;;;0.50;99.90;;;;;;5062429;28;20223;-64
2023/01/25 06:21:06;;;;;;;23.33;14.47;;;0.50;99.90;;;;;;5077111;27;20673;-64
2023/01/25 06:23:33;;;;;;;25.77;13.80;;;0.40;99.90;;;;;;5068110;28;20207;-64
2023/01/25 06:26:00;;;;;;;28.57;15.60;;;0.50;99.90;;;;;;5053084;27;20195;-64
2023/01/25 06:28:29;;;;;;;29.67;14.27;;;0.50;99.90;;;;;;5078990;27;20235;-64
2023/01/25 06:30:56;;;;;;;28.47;15.30;;;0.50;99.90;;;;;;5052961;27;20207;-64
2023/01/25 06:33:23;;;;;;;23.27;14.23;;;0.50;99.90;;;;;;5076172;27;20210;-63
2023/01/25 06:35:51;;;;;;;24.83;14.73;;;0.40;99.90;;;;;;5063409;28;20201;-65
2023/01/25 06:38:19;;;;;;;28.40;16.40;;;0.40;99.90;;;;;;5034819;28;20233;-64
2023/01/25 06:40:46;;;;;;;29.53;15.83;;;0.30;99.90;;;;;;5058275;28;20208;-64
2023/01/25 06:43:12;;;;;;;26.37;14.57;;;0.40;99.90;;;;;;5071627;28;20198;-63
2023/01/25 06:45:39;;;;;;;24.93;15.33;;;0.40;99.90;;;;;;5019225;28;20217;-63
2023/01/25 06:48:06;;;;;;;29.57;16.43;;;0.40;99.90;;;;;;5063579;28;20233;-63
2023/01/25 06:50:33;;;;;;;26.80;15.70;;;0.40;99.90;;;;;;5078098;28;20220;-64
2023/01/25 06:53:00;;;;;;;25.23;15.83;;;0.40;99.90;;;;;;5047923;28;20348;-64
2023/01/25 06:55:28;;;;;;;28.30;15.90;;;0.50;99.90;;;;;;5068099;28;20193;-64
2023/01/25 06:57:55;;;;;;;29.93;17.07;;;0.50;99.90;;;;;;5061774;28;20589;-63
2023/01/25 07:00:22;;;;;;;26.23;14.83;;;0.50;99.90;;;;;;5038533;28;20213;-64
2023/01/25 07:02:49;;;;;;;33.20;17.57;;;0.50;99.90;;;;;;5067650;28;20228;-63
2023/01/25 07:05:15;;;;;;;29.87;16.47;;;0.50;99.90;;;;;;5063731;28;20230;-64
2023/01/25 07:07:45;;;;;;;26.43;15.13;;;0.40;99.90;;;;;;5027898;28;21122;-63
2023/01/25 07:10:11;;;;;;;28.80;15.23;;;0.40;99.90;;;;;;5038181;28;20706;-64
2023/01/25 07:12:39;;;;;;;28.07;15.93;;;0.40;99.90;;;;;;5031263;28;20655;-64
2023/01/25 07:15:08;;;;;;;29.73;16.47;;;0.40;99.90;;;;;;5065770;28;20204;-65
2023/01/25 07:17:34;;;;;;;25.87;15.40;;;0.40;99.90;;;;;;5062660;28;20565;-63
2023/01/25 07:20:01;;;;;;;29.53;16.70;;;0.40;99.90;;;;;;5075802;28;20893;-64
2023/01/25 07:22:28;;;;;;;29.07;16.87;;;0.40;99.90;;;;;;5071884;28;21451;-64
2023/01/25 07:24:56;;;;;;;27.37;15.13;;;0.40;99.90;;;;;;5060490;28;20207;-63
2023/01/25 07:27:23;;;;;;;30.43;15.43;;;0.40;99.90;;;;;;5050293;28;20214;-64
2023/01/25 07:29:51;;;;;;;31.00;16.80;;;0.40;99.90;;;;;;5078474;28;20209;-64
2023/01/25 07:32:18;;;;;;;31.73;16.93;;;0.40;99.90;;;;;;5052261;28;20203;-63
2023/01/25 07:34:45;;;;;;;28.80;16.03;;;0.40;99.90;;;;;;5084831;28;20201;-64
2023/01/25 07:37:11;;;;;;;34.57;17.50;;;0.40;99.90;;;;;;5065695;28;20204;-63
2023/01/25 07:39:46;;;;;;;38.90;18.47;;;0.40;99.90;;;;;;5063702;28;20201;-64
2023/01/25 07:42:13;;;;;;;31.80;17.40;;;0.40;99.90;;;;;;5035440;28;20211;-64
2023/01/25 07:44:39;;;;;;;30.77;17.00;;;0.40;99.90;;;;;;5065612;27;20197;-63
2023/01/25 07:47:08;;;;;;;32.17;18.00;;;0.40;99.90;;;;;;5018536;28;20824;-64
2023/01/25 07:49:35;;;;;;;32.57;17.37;;;0.40;99.90;;;;;;5071630;28;20588;-64
2023/01/25 07:52:01;;;;;;;31.57;17.87;;;0.40;99.90;;;;;;5084526;28;20228;-64
2023/01/25 07:54:28;;;;;;;30.87;17.33;;;0.50;99.90;;;;;;5058165;28;20208;-63
2023/01/25 07:56:56;;;;;;;33.13;18.23;;;0.50;99.90;;;;;;5063087;28;20206;-63
2023/01/25 07:59:24;;;;;;;36.30;18.67;;;0.40;99.90;;;;;;5060805;27;20235;-64
2023/01/25 08:01:52;;;;;;;36.40;18.17;;;0.40;99.90;;;;;;5052842;28;20231;-64
2023/01/25 08:04:20;;;;;;;30.83;18.10;;;0.40;99.90;;;;;;5076961;28;20239;-64
2023/01/25 08:06:47;;;;;;;32.53;18.33;;;0.30;99.90;;;;;;5075509;27;20225;-64
2023/01/25 08:09:16;;;;;;;33.80;18.43;;;0.40;99.90;;;;;;5064791;28;20802;-64
2023/01/25 08:11:43;;;;;;;32.33;18.33;;;0.40;99.90;;;;;;5057960;27;20361;-64
2023/01/25 08:14:10;;;;;;;35.23;19.13;;;0.40;99.90;;;;;;4996199;28;20232;-64
2023/01/25 08:16:37;;;;;;;34.73;18.77;;;0.40;99.90;;;;;;5070032;28;20266;-64
2023/01/25 08:19:04;;;;;;;32.63;17.77;;;0.40;99.90;;;;;;5058344;28;20257;-63
2023/01/25 08:21:34;;;;;;;34.90;19.07;;;1.50;99.90;;;;;;5075578;28;20208;-63
2023/01/25 08:24:02;;;;;;;42.43;20.53;;;0.40;99.90;;;;;;5054435;28;20232;-64
2023/01/25 08:26:29;;;;;;;38.33;20.47;;;0.50;99.90;;;;;;5049888;28;20204;-64
2023/01/25 08:28:56;;;;;;;44.00;21.63;;;0.50;99.90;;;;;;5041265;28;20722;-64
2023/01/25 08:31:25;;;;;;;40.40;20.80;;;0.50;99.90;;;;;;5079992;27;20199;-64
2023/01/25 08:33:53;;;;;;;36.00;18.83;;;0.50;99.90;;;;;;5050754;27;20228;-64
2023/01/25 08:36:22;;;;;;;45.70;23.30;;;0.50;99.90;;;;;;5085972;27;20201;-64
2023/01/25 08:38:55;;;;;;;47.43;23.17;;;0.50;99.90;;;;;;5057606;28;20262;-63
2023/01/25 08:41:22;;;;;;;41.63;20.50;;;0.50;99.90;;;;;;5057981;28;20202;-64
2023/01/25 08:43:48;;;;;;;43.37;22.70;;;0.40;99.90;;;;;;5047921;28;20210;-64
2023/01/25 08:46:16;;;;;;;42.80;23.27;;;0.40;99.90;;;;;;5087729;28;20209;-64
2023/01/25 08:48:43;;;;;;;45.33;22.60;;;0.50;99.90;;;;;;5048806;27;20231;-64
2023/01/25 08:51:12;;;;;;;39.67;20.33;;;0.50;99.90;;;;;;5071699;28;20213;-64
2023/01/25 08:53:39;;;;;;;39.10;20.40;;;0.50;99.90;;;;;;5071034;28;20201;-64
2023/01/25 08:56:10;;;;;;;39.50;20.70;;;0.50;99.90;;;;;;5069710;27;20599;-64
2023/01/25 08:58:38;;;;;;;40.43;20.63;;;0.50;99.90;;;;;;5056637;27;20205;-64
2023/01/25 09:01:06;;;;;;;37.50;20.13;;;0.50;99.90;;;;;;5082326;28;20789;-64
2023/01/25 09:03:36;;;;;;;38.60;19.47;;;0.50;99.90;;;;;;5050732;28;20228;-64
2023/01/25 09:06:03;;;;;;;32.00;17.23;;;0.60;99.90;;;;;;5086074;28;20201;-64
2023/01/25 09:08:30;;;;;;;34.50;17.33;;;0.60;99.90;;;;;;5077201;28;20798;-64
2023/01/25 09:11:02;;;;;;;40.53;19.50;;;0.50;99.90;;;;;;5063693;27;20208;-64
2023/01/25 09:13:30;;;;;;;34.37;18.70;;;0.50;99.90;;;;;;5068277;28;20283;-64
2023/01/25 09:16:00;;;;;;;31.53;16.53;;;0.40;99.90;;;;;;5052144;27;20226;-64
2023/01/25 09:18:27;;;;;;;28.80;14.67;;;0.40;99.90;;;;;;5063104;28;20626;-64
2023/01/25 09:20:54;;;;;;;27.03;14.43;;;0.40;99.90;;;;;;5040709;28;20210;-64
2023/01/25 09:23:22;;;;;;;29.03;16.00;;;0.40;99.90;;;;;;5074311;28;20232;-64
2023/01/25 09:25:49;;;;;;;33.13;16.60;;;0.30;99.90;;;;;;5057948;28;20225;-63
2023/01/25 09:28:16;;;;;;;34.93;17.53;;;0.40;99.90;;;;;;5066000;28;20237;-63
2023/01/25 09:30:44;;;;;;;33.50;17.37;;;0.30;99.90;;;;;;5056489;28;20220;-64
2023/01/25 09:33:15;;;;;;;35.93;16.83;;;0.60;99.90;;;;;;5074847;28;20193;-63
2023/01/25 09:35:48;;;;;;;30.77;15.77;;;0.40;99.90;;;;;;5028141;28;20229;-63
2023/01/25 09:38:14;;;;;;;30.10;15.10;;;0.40;99.90;;;;;;5076963;27;20204;-63
2023/01/25 09:40:50;;;;;;;33.97;15.43;;;0.40;99.90;;;;;;5067486;27;20226;-64
2023/01/25 09:43:28;;;;;;;31.83;17.20;;;0.30;99.90;;;;;;5073290;28;20218;-63
2023/01/25 09:45:57;;;;;;;29.40;16.03;;;0.30;99.90;;;;;;5056261;28;20204;-64
2023/01/25 09:48:34;;;;;;;29.07;14.70;;;0.40;99.90;;;;;;5065816;28;20232;-64
2023/01/25 09:51:14;;;;;;;33.67;16.37;;;0.40;99.90;;;;;;5041633;28;20571;-63
2023/01/25 09:53:47;;;;;;;31.37;17.43;;;0.40;99.90;;;;;;5077545;28;20662;-63
2023/01/25 09:56:23;;;;;;;27.27;15.57;;;0.40;99.90;;;;;;5063501;27;20219;-63
2023/01/25 09:58:53;;;;;;;30.93;15.83;;;0.40;99.90;;;;;;5072925;28;20205;-63
2023/01/25 10:01:33;;;;;;;35.47;17.10;;;0.40;99.90;;;;;;5062979;27;20209;-63
2023/01/25 10:04:04;;;;;;;32.30;17.47;;;0.40;99.90;;;;;;5076409;27;20919;-64
2023/01/25 10:06:38;;;;;;;27.63;15.20;;;0.50;99.90;;;;;;5042846;28;20954;-64
2023/01/25 10:09:15;;;;;;;30.30;15.77;;;0.50;99.90;;;;;;5068890;27;20224;-64
2023/01/25 10:11:42;;;;;;;31.63;16.47;;;0.50;99.90;;;;;;5064259;27;20231;-63
2023/01/25 10:14:14;;;;;;;27.87;15.43;;;0.50;99.90;;;;;;5073460;28;20526;-63
2023/01/25 10:16:56;;;;;;;27.23;15.07;;;0.50;99.90;;;;;;5055371;28;20290;-63
2023/01/25 10:19:32;;;;;;;30.40;15.57;;;0.60;99.90;;;;;;5049893;28;20224;-64
2023/01/25 10:22:05;;;;;;;27.77;14.67;;;0.50;99.90;;;;;;5025895;28;20224;-63
2023/01/25 10:25:00;;;;;;;31.30;15.67;;;0.50;99.90;;;;;;5059721;28;20221;-63
2023/01/25 10:27:36;;;;;;;39.07;20.10;;;0.50;99.90;;;;;;5053300;28;20212;-63
2023/01/25 10:30:30;;;;;;;37.83;19.07;;;0.50;99.90;;;;;;5067649;28;20228;-64
2023/01/25 10:33:02;;;;;;;35.90;17.70;;;0.60;99.90;;;;;;5064460;28;20219;-63
2023/01/25 10:35:35;;;;;;;29.63;16.10;;;0.50;99.90;;;;;;5069048;27;20220;-64
2023/01/25 10:38:06;;;;;;;31.60;16.80;;;0.50;99.90;;;;;;5043632;28;20226;-64
2023/01/25 10:40:42;;;;;;;32.43;15.57;;;0.50;99.90;;;;;;5084065;28;20224;-63
2023/01/25 10:43:16;;;;;;;28.97;16.13;;;0.50;99.90;;;;;;5062862;27;20235;-63
2023/01/25 10:45:43;;;;;;;27.97;15.53;;;0.50;99.90;;;;;;5074375;28;20225;-63
2023/01/25 10:48:17;;;;;;;31.30;16.73;;;0.50;99.90;;;;;;5056603;28;20878;-64
2023/01/25 10:50:50;;;;;;;30.43;15.17;;;0.50;99.90;;;;;;5073220;28;20317;-63
2023/01/25 10:53:26;;;;;;;26.90;13.67;;;0.60;99.90;;;;;;5044658;28;20227;-63
2023/01/25 10:56:18;;;;;;;29.43;15.23;;;0.50;99.90;;;;;;5068287;27;20226;-63
2023/01/25 10:58:46;;;;;;;28.80;14.53;;;0.60;99.90;;;;;;5052445;27;20274;-63
2023/01/25 11:01:24;;;;;;;32.13;15.13;;;0.60;99.90;;;;;;5075122;28;20545;-63
2023/01/25 11:03:52;;;;;;;26.80;13.43;;;0.50;99.90;;;;;;5052478;28;20228;-63
2023/01/25 11:06:29;;;;;;;30.33;14.17;;;0.50;99.90;;;;;;5074039;27;20227;-63
2023/01/25 11:08:56;;;;;;;27.17;15.07;;;0.50;99.90;;;;;;5054986;28;20234;-65
2023/01/25 11:11:26;;;;;;;26.07;14.73;;;0.40;99.90;;;;;;5062918;28;20222;-64
2023/01/25 11:13:54;;;;;;;23.60;13.87;;;0.40;99.90;;;;;;5059656;28;20231;-63
2023/01/25 11:16:37;;;;;;;23.67;12.17;;;0.40;99.90;;;;;;5063834;27;20212;-63
2023/01/25 11:19:25;;;;;;;24.00;12.90;;;0.40;99.90;;;;;;5056345;28;20216;-63
2023/01/25 11:21:53;;;;;;;25.00;12.40;;;0.30;99.90;;;;;;5075722;28;20491;-62
2023/01/25 11:24:19;;;;;;;20.33;11.67;;;0.30;99.90;;;;;;5041051;28;20461;-64
2023/01/25 11:26:47;;;;;;;22.40;13.03;;;0.30;99.90;;;;;;5080721;28;20208;-64
2023/01/25 11:29:16;;;;;;;26.67;13.93;;;0.40;99.90;;;;;;5068821;28;20231;-64
2023/01/25 11:31:46;;;;;;;29.10;13.43;;;0.40;99.90;;;;;;5080391;28;21038;-64
2023/01/25 11:34:16;;;;;;;25.13;12.83;;;0.40;99.90;;;;;;5049922;28;20962;-63
2023/01/25 11:37:07;;;;;;;25.83;13.17;;;0.30;99.90;;;;;;5079874;28;20197;-63
2023/01/25 11:39:43;;;;;;;24.17;12.60;;;0.40;99.90;;;;;;5048741;28;20215;-63
2023/01/25 11:42:24;;;;;;;24.43;13.57;;;0.40;99.90;;;;;;5072467;28;20198;-64
2023/01/25 11:45:19;;;;;;;23.43;12.37;;;0.30;99.90;;;;;;5069384;28;21071;-63
2023/01/25 11:47:59;;;;;;;21.80;11.53;;;0.40;99.90;;;;;;5082695;28;20223;-63
2023/01/25 11:50:35;;;;;;;20.80;11.47;;;0.40;99.90;;;;;;5061831;28;20887;-63
2023/01/25 11:53:35;;;;;;;25.17;12.70;;;0.30;99.90;;;;;;5062631;28;20324;-63
2023/01/25 11:56:11;;;;;;;23.70;11.97;;;0.30;99.90;;;;;;5040198;28;20227;-63
2023/01/25 11:58:58;;;;;;;25.33;14.60;;;0.30;99.90;;;;;;5061089;28;20222;-63
2023/01/25 12:01:34;;;;;;;22.77;12.53;;;0.30;99.90;;;;;;5073258;28;20299;-63
2023/01/25 12:04:29;;;;;;;22.83;11.97;;;0.30;99.90;;;;;;5061620;28;23415;-62
2023/01/25 12:07:02;;;;;;;22.57;12.73;;;0.30;99.90;;;;;;5055936;28;20214;-63
2023/01/25 12:09:42;;;;;;;27.33;13.33;;;0.30;99.90;;;;;;5074535;28;20227;-63
2023/01/25 12:12:21;;;;;;;24.53;12.87;;;0.30;99.90;;;;;;5051184;28;20758;-63
2023/01/25 12:15:04;;;;;;;24.30;13.07;;;0.30;99.90;;;;;;5058056;28;20208;-63
2023/01/25 12:17:50;;;;;;;22.03;12.40;;;0.30;99.90;;;;;;5073978;28;20204;-63
2023/01/25 12:20:31;;;;;;;23.77;12.93;;;0.30;99.90;;;;;;5065259;28;20199;-62
2023/01/25 12:23:18;;;;;;;25.87;13.03;;;0.40;99.90;;;;;;5059706;28;20572;-63
2023/01/25 12:25:58;;;;;;;26.47;13.60;;;0.30;99.90;;;;;;5078678;27;20216;-63
2023/01/25 12:28:31;;;;;;;24.63;13.13;;;0.20;99.90;;;;;;5056849;28;20215;-63
2023/01/25 12:31:03;;;;;;;23.10;12.17;;;0.30;99.90;;;;;;5059093;27;20473;-62
2023/01/25 12:33:34;;;;;;;26.53;12.80;;;0.30;99.90;;;;;;5077467;27;20204;-63
2023/01/25 12:36:06;;;;;;;21.03;12.07;;;0.30;99.90;;;;;;5056430;27;20204;-63
2023/01/25 12:38:42;;;;;;;31.83;12.50;;;0.20;99.90;;;;;;5070512;28;21020;-63
2023/01/25 12:41:23;;;;;;;24.63;13.27;;;0.20;99.90;;;;;;5083138;27;20571;-63
2023/01/25 12:43:56;;;;;;;26.57;13.87;;;0.30;99.90;;;;;;5039488;27;21215;-63
2023/01/25 12:46:28;;;;;;;27.13;13.10;;;0.30;99.90;;;;;;5074434;28;20209;-63
2023/01/25 12:48:59;;;;;;;20.67;12.47;;;0.20;99.90;;;;;;5086420;28;20261;-63
2023/01/25 12:51:34;;;;;;;27.80;13.67;;;0.30;99.90;;;;;;5052622;28;21181;-63
2023/01/25 12:54:13;;;;;;;25.13;13.03;;;0.30;99.90;;;;;;5054610;28;20204;-63
2023/01/25 12:56:44;;;;;;;20.87;12.23;;;0.30;99.90;;;;;;5069905;28;20207;-63